sensor_id;sensor_type;location;lat;lon;timestamp;pressure;altitude;pressure_sealevel;temperature;humidity
34979;BME280;21185;50.978;13.720;2024-02-15T00:00:37;98539.34;;;9.79;82.45
34979;BME280;21185;50.978;13.720;2024-02-15T00:05:39;98543.56;;;9.80;82.46
34979;BME280;21185;50.978;13.720;2024-02-15T00:10:41;98538.38;;;9.80;82.64
34979;BME280;21185;50.978;13.720;2024-02-15T00:15:44;98541.47;;;9.83;82.61
34979;BME280;21185;50.978;13.720;2024-02-15T00:20:47;98541.34;;;9.85;82.77
34979;BME280;21185;50.978;13.720;2024-02-15T00:25:50;98542.00;;;9.87;82.96
34979;BME280;21185;50.978;13.720;2024-02-15T00:30:53;98537.47;;;9.89;82.92
34979;BME280;21185;50.978;13.720;2024-02-15T00:35:55;98533.91;;;9.90;83.13
34979;BME280;21185;50.978;13.720;2024-02-15T00:41:02;98533.75;;;9.91;83.11
34979;BME280;21185;50.978;13.720;2024-02-15T00:46:07;98542.19;;;9.93;83.10
34979;BME280;21185;50.978;13.720;2024-02-15T00:51:13;98537.69;;;9.95;83.15
34979;BME280;21185;50.978;13.720;2024-02-15T00:56:15;98543.38;;;9.99;83.28
34979;BME280;21185;50.978;13.720;2024-02-15T01:01:17;98541.44;;;10.01;83.15
34979;BME280;21185;50.978;13.720;2024-02-15T01:06:20;98538.69;;;10.02;83.46
34979;BME280;21185;50.978;13.720;2024-02-15T01:11:23;98532.56;;;10.03;83.49
34979;BME280;21185;50.978;13.720;2024-02-15T01:16:25;98538.41;;;10.05;83.68
34979;BME280;21185;50.978;13.720;2024-02-15T01:21:27;98535.97;;;10.04;83.65
34979;BME280;21185;50.978;13.720;2024-02-15T01:26:29;98535.97;;;10.04;83.90
34979;BME280;21185;50.978;13.720;2024-02-15T01:31:31;98527.22;;;10.05;84.01
34979;BME280;21185;50.978;13.720;2024-02-15T01:36:33;98535.00;;;10.05;84.84
34979;BME280;21185;50.978;13.720;2024-02-15T01:41:35;98527.22;;;10.05;84.82
34979;BME280;21185;50.978;13.720;2024-02-15T01:46:37;98522.03;;;10.05;84.92
34979;BME280;21185;50.978;13.720;2024-02-15T01:51:40;98522.84;;;10.05;85.15
34979;BME280;21185;50.978;13.720;2024-02-15T01:56:45;98516.03;;;10.04;85.01
34979;BME280;21185;50.978;13.720;2024-02-15T02:01:47;98513.28;;;10.06;85.01
34979;BME280;21185;50.978;13.720;2024-02-15T02:06:49;98517.34;;;10.09;85.13
34979;BME280;21185;50.978;13.720;2024-02-15T02:11:51;98508.75;;;10.08;85.07
34979;BME280;21185;50.978;13.720;2024-02-15T02:16:53;98504.22;;;10.10;85.14
34979;BME280;21185;50.978;13.720;2024-02-15T02:27:53;98512.50;;;10.14;85.67
34979;BME280;21185;50.978;13.720;2024-02-15T02:32:56;98509.78;;;10.15;85.78
34979;BME280;21185;50.978;13.720;2024-02-15T02:38:02;98503.63;;;10.16;85.67
34979;BME280;21185;50.978;13.720;2024-02-15T02:43:04;98511.25;;;10.18;85.57
34979;BME280;21185;50.978;13.720;2024-02-15T02:48:32;98512.06;;;10.18;85.82
34979;BME280;21185;50.978;13.720;2024-02-15T02:53:51;98511.25;;;10.18;86.04
34979;BME280;21185;50.978;13.720;2024-02-15T02:58:53;98503.47;;;10.18;85.75
34979;BME280;21185;50.978;13.720;2024-02-15T03:03:56;98506.06;;;10.18;85.94
34979;BME280;21185;50.978;13.720;2024-02-15T03:08:58;98510.44;;;10.17;86.05
34979;BME280;21185;50.978;13.720;2024-02-15T03:14:01;98506.88;;;10.18;85.94
34979;BME280;21185;50.978;13.720;2024-02-15T03:19:06;98505.09;;;10.19;86.08
34979;BME280;21185;50.978;13.720;2024-02-15T03:24:17;98506.75;;;10.20;85.65
34979;BME280;21185;50.978;13.720;2024-02-15T03:29:19;98504.16;;;10.20;86.11
34979;BME280;21185;50.978;13.720;2024-02-15T03:34:22;98504.28;;;10.18;85.84
34979;BME280;21185;50.978;13.720;2024-02-15T03:39:25;98499.78;;;10.20;86.06
34979;BME280;21185;50.978;13.720;2024-02-15T03:44:27;98504.00;;;10.21;86.12
34979;BME280;21185;50.978;13.720;2024-02-15T03:49:29;98508.06;;;10.24;86.25
34979;BME280;21185;50.978;13.720;2024-02-15T03:54:42;98513.09;;;10.25;86.33
34979;BME280;21185;50.978;13.720;2024-02-15T03:59:49;98507.91;;;10.25;86.15
34979;BME280;21185;50.978;13.720;2024-02-15T04:04:58;98512.94;;;10.27;86.46
34979;BME280;21185;50.978;13.720;2024-02-15T04:10:09;98523.16;;;10.28;86.33
34979;BME280;21185;50.978;13.720;2024-02-15T04:15:26;98518.47;;;10.32;86.34
34979;BME280;21185;50.978;13.720;2024-02-15T04:20:28;98526.25;;;10.32;86.24
34979;BME280;21185;50.978;13.720;2024-02-15T04:25:31;98526.94;;;10.34;86.13
34979;BME280;21185;50.978;13.720;2024-02-15T04:30:35;98524.19;;;10.35;86.09
34979;BME280;21185;50.978;13.720;2024-02-15T04:35:45;98521.44;;;10.37;85.99
34979;BME280;21185;50.978;13.720;2024-02-15T04:40:47;98527.44;;;10.37;86.07
34979;BME280;21185;50.978;13.720;2024-02-15T04:45:56;98526.47;;;10.38;86.00
34979;BME280;21185;50.978;13.720;2024-02-15T04:50:59;98529.06;;;10.38;85.90
34979;BME280;21185;50.978;13.720;2024-02-15T04:56:06;98522.09;;;10.39;85.68
34979;BME280;21185;50.978;13.720;2024-02-15T05:01:16;98537.47;;;10.41;85.95
34979;BME280;21185;50.978;13.720;2024-02-15T05:06:18;98533.09;;;10.41;86.30
34979;BME280;21185;50.978;13.720;2024-02-15T05:11:21;98542.50;;;10.42;86.05
34979;BME280;21185;50.978;13.720;2024-02-15T05:16:24;98534.72;;;10.42;86.05
34979;BME280;21185;50.978;13.720;2024-02-15T05:21:28;98532.78;;;10.44;86.08
34979;BME280;21185;50.978;13.720;2024-02-15T05:26:34;98542.19;;;10.45;86.43
34979;BME280;21185;50.978;13.720;2024-02-15T05:31:36;98541.38;;;10.45;86.19
34979;BME280;21185;50.978;13.720;2024-02-15T05:36:40;98527.44;;;10.46;86.14
34979;BME280;21185;50.978;13.720;2024-02-15T05:41:42;98539.44;;;10.47;86.02
34979;BME280;21185;50.978;13.720;2024-02-15T05:46:45;98548.03;;;10.47;86.23
34979;BME280;21185;50.978;13.720;2024-02-15T05:51:47;98547.22;;;10.47;86.28
34979;BME280;21185;50.978;13.720;2024-02-15T05:56:50;98544.47;;;10.48;86.14
34979;BME280;21185;50.978;13.720;2024-02-15T06:01:55;98554.03;;;10.48;86.41
34979;BME280;21185;50.978;13.720;2024-02-15T06:06:58;98554.84;;;10.48;86.26
34979;BME280;21185;50.978;13.720;2024-02-15T06:12:03;98563.28;;;10.50;86.24
34979;BME280;21185;50.978;13.720;2024-02-15T06:17:05;98570.13;;;10.51;86.69
34979;BME280;21185;50.978;13.720;2024-02-15T06:22:08;98565.06;;;10.50;86.50
34979;BME280;21185;50.978;13.720;2024-02-15T06:27:13;98575.44;;;10.50;86.47
34979;BME280;21185;50.978;13.720;2024-02-15T06:32:17;98578.06;;;10.50;86.63
34979;BME280;21185;50.978;13.720;2024-02-15T06:37:39;98579.69;;;10.51;86.65
34979;BME280;21185;50.978;13.720;2024-02-15T06:43:00;98583.91;;;10.52;86.54
34979;BME280;21185;50.978;13.720;2024-02-15T06:48:03;98581.31;;;10.52;86.82
34979;BME280;21185;50.978;13.720;2024-02-15T06:53:06;98582.94;;;10.53;86.95
34979;BME280;21185;50.978;13.720;2024-02-15T06:58:08;98586.19;;;10.55;86.88
34979;BME280;21185;50.978;13.720;2024-02-15T07:03:10;98586.03;;;10.56;87.35
34979;BME280;21185;50.978;13.720;2024-02-15T07:08:14;98587.50;;;10.59;87.25
34979;BME280;21185;50.978;13.720;2024-02-15T07:13:16;98583.63;;;10.63;87.15
34979;BME280;21185;50.978;13.720;2024-02-15T07:18:18;98584.44;;;10.63;87.09
34979;BME280;21185;50.978;13.720;2024-02-15T07:23:30;98579.75;;;10.67;87.11
34979;BME280;21185;50.978;13.720;2024-02-15T07:28:34;98568.09;;;10.71;87.14
34979;BME280;21185;50.978;13.720;2024-02-15T07:33:36;98583.72;;;10.79;87.28
34979;BME280;21185;50.978;13.720;2024-02-15T07:38:39;98589.56;;;10.81;87.42
34979;BME280;21185;50.978;13.720;2024-02-15T07:43:41;98590.88;;;10.85;87.43
34979;BME280;21185;50.978;13.720;2024-02-15T07:48:44;98583.59;;;10.89;87.54
34979;BME280;21185;50.978;13.720;2024-02-15T07:53:52;98591.72;;;10.94;87.30
34979;BME280;21185;50.978;13.720;2024-02-15T07:58:54;98594.97;;;10.96;87.37
34979;BME280;21185;50.978;13.720;2024-02-15T08:03:56;98594.00;;;10.97;87.22
34979;BME280;21185;50.978;13.720;2024-02-15T08:08:59;98585.09;;;10.99;87.76
34979;BME280;21185;50.978;13.720;2024-02-15T08:14:01;98583.81;;;11.03;87.66
34979;BME280;21185;50.978;13.720;2024-02-15T08:19:03;98584.47;;;11.14;87.78
34979;BME280;21185;50.978;13.720;2024-02-15T08:24:07;98567.63;;;11.26;87.53
34979;BME280;21185;50.978;13.720;2024-02-15T08:29:11;98563.25;;;11.34;87.42
34979;BME280;21185;50.978;13.720;2024-02-15T08:34:18;98563.44;;;11.41;87.55
34979;BME280;21185;50.978;13.720;2024-02-15T08:39:22;98558.41;;;11.48;87.54
34979;BME280;21185;50.978;13.720;2024-02-15T08:44:24;98564.91;;;11.52;87.30
34979;BME280;21185;50.978;13.720;2024-02-15T08:49:54;98566.06;;;11.57;87.53
34979;BME280;21185;50.978;13.720;2024-02-15T08:54:56;98571.41;;;11.56;87.32
34979;BME280;21185;50.978;13.720;2024-02-15T09:00:03;98578.56;;;11.62;87.43
34979;BME280;21185;50.978;13.720;2024-02-15T09:05:16;98579.38;;;11.71;87.09
34979;BME280;21185;50.978;13.720;2024-02-15T09:10:20;98573.53;;;11.77;87.21
34979;BME280;21185;50.978;13.720;2024-02-15T09:15:27;98573.91;;;11.82;86.90
34979;BME280;21185;50.978;13.720;2024-02-15T09:20:33;98587.88;;;11.89;86.65
34979;BME280;21185;50.978;13.720;2024-02-15T09:25:39;98583.97;;;11.93;86.73
34979;BME280;21185;50.978;13.720;2024-02-15T09:30:41;98573.91;;;11.98;86.65
34979;BME280;21185;50.978;13.720;2024-02-15T09:35:43;98577.13;;;12.08;86.77
34979;BME280;21185;50.978;13.720;2024-02-15T09:40:48;98581.53;;;12.16;86.31
34979;BME280;21185;50.978;13.720;2024-02-15T09:45:53;98589.47;;;12.22;86.24
34979;BME280;21185;50.978;13.720;2024-02-15T09:50:57;98599.22;;;12.28;86.07
34979;BME280;21185;50.978;13.720;2024-02-15T09:56:00;98600.03;;;12.29;85.77
34979;BME280;21185;50.978;13.720;2024-02-15T10:01:08;98601.19;;;12.26;85.84
34979;BME280;21185;50.978;13.720;2024-02-15T10:06:13;98599.56;;;12.25;85.58
34979;BME280;21185;50.978;13.720;2024-02-15T10:11:15;98604.59;;;12.27;85.43
34979;BME280;21185;50.978;13.720;2024-02-15T10:16:19;98591.75;;;12.25;85.54
34979;BME280;21185;50.978;13.720;2024-02-15T10:21:29;98582.47;;;12.31;85.62
34979;BME280;21185;50.978;13.720;2024-02-15T10:26:33;98590.75;;;12.43;85.22
34979;BME280;21185;50.978;13.720;2024-02-15T10:38:11;98579.47;;;12.58;84.79
34979;BME280;21185;50.978;13.720;2024-02-15T10:57:46;98568.53;;;12.71;84.50
34979;BME280;21185;50.978;13.720;2024-02-15T11:23:52;98565.66;;;12.58;85.53
34979;BME280;21185;50.978;13.720;2024-02-15T11:28:54;98574.56;;;12.72;85.44
34979;BME280;21185;50.978;13.720;2024-02-15T11:33:57;98562.19;;;12.74;85.44
34979;BME280;21185;50.978;13.720;2024-02-15T11:55:59;98536.66;;;13.00;85.30
34979;BME280;21185;50.978;13.720;2024-02-15T12:01:03;98536.44;;;13.10;85.40
34979;BME280;21185;50.978;13.720;2024-02-15T13:51:23;98485.84;;;13.73;80.93
34979;BME280;21185;50.978;13.720;2024-02-15T14:17:13;98471.09;;;13.80;80.30
34979;BME280;21185;50.978;13.720;2024-02-15T14:29:18;98465.91;;;13.80;80.08
34979;BME280;21185;50.978;13.720;2024-02-15T14:34:24;98468.03;;;13.76;79.99
34979;BME280;21185;50.978;13.720;2024-02-15T14:39:29;98460.69;;;13.80;79.90
34979;BME280;21185;50.978;13.720;2024-02-15T15:27:56;98448.25;;;13.67;79.93
34979;BME280;21185;50.978;13.720;2024-02-15T15:38:37;98446.81;;;13.65;80.03
34979;BME280;21185;50.978;13.720;2024-02-15T15:50:46;98450.19;;;13.50;80.51
34979;BME280;21185;50.978;13.720;2024-02-15T16:09:50;98439.03;;;13.19;80.85
34979;BME280;21185;50.978;13.720;2024-02-15T16:28:52;98439.53;;;12.91;81.11
34979;BME280;21185;50.978;13.720;2024-02-15T16:33:54;98441.22;;;12.84;81.04
34979;BME280;21185;50.978;13.720;2024-02-15T17:06:02;98452.44;;;12.54;80.83
34979;BME280;21185;50.978;13.720;2024-02-15T17:11:07;98451.84;;;12.44;80.84
34979;BME280;21185;50.978;13.720;2024-02-15T17:29:50;98466.72;;;12.19;80.98
34979;BME280;21185;50.978;13.720;2024-02-15T17:34:54;98468.69;;;12.17;80.74
34979;BME280;21185;50.978;13.720;2024-02-15T18:13:40;98458.50;;;11.91;80.84
34979;BME280;21185;50.978;13.720;2024-02-15T18:18:42;98446.47;;;11.90;80.87
34979;BME280;21185;50.978;13.720;2024-02-15T18:31:40;98445.03;;;11.87;80.41
34979;BME280;21185;50.978;13.720;2024-02-15T19:17:45;98413.38;;;11.51;80.56
34979;BME280;21185;50.978;13.720;2024-02-15T19:22:55;98417.59;;;11.52;80.52
34979;BME280;21185;50.978;13.720;2024-02-15T19:27:58;98410.13;;;11.49;80.55
34979;BME280;21185;50.978;13.720;2024-02-15T19:34:21;98407.38;;;11.34;80.96
34979;BME280;21185;50.978;13.720;2024-02-15T20:05:41;98419.56;;;11.01;81.89
34979;BME280;21185;50.978;13.720;2024-02-15T20:12:05;98423.78;;;11.02;81.97
34979;BME280;21185;50.978;13.720;2024-02-15T20:23:29;98434.97;;;11.03;81.56
34979;BME280;21185;50.978;13.720;2024-02-15T20:28:31;98430.75;;;11.02;81.16
34979;BME280;21185;50.978;13.720;2024-02-15T20:40:02;98421.00;;;10.88;80.87
34979;BME280;21185;50.978;13.720;2024-02-15T20:45:05;98413.69;;;10.83;80.67
34979;BME280;21185;50.978;13.720;2024-02-15T20:57:34;98420.66;;;10.75;80.88
34979;BME280;21185;50.978;13.720;2024-02-15T21:02:43;98403.78;;;10.70;80.49
34979;BME280;21185;50.978;13.720;2024-02-15T21:07:48;98400.84;;;10.65;80.41
34979;BME280;21185;50.978;13.720;2024-02-15T21:13:40;98399.88;;;10.58;80.64
34979;BME280;21185;50.978;13.720;2024-02-15T21:18:50;98395.31;;;10.52;80.39
34979;BME280;21185;50.978;13.720;2024-02-15T21:24:07;98380.53;;;10.45;80.36
34979;BME280;21185;50.978;13.720;2024-02-15T21:29:11;98370.81;;;10.38;80.08
34979;BME280;21185;50.978;13.720;2024-02-15T21:34:17;98372.44;;;10.31;80.18
34979;BME280;21185;50.978;13.720;2024-02-15T21:39:20;98377.94;;;10.28;80.28
34979;BME280;21185;50.978;13.720;2024-02-15T21:44:29;98367.06;;;10.25;80.14
34979;BME280;21185;50.978;13.720;2024-02-15T21:49:35;98361.22;;;10.23;79.91
34979;BME280;21185;50.978;13.720;2024-02-15T21:54:39;98351.44;;;10.17;79.81
34979;BME280;21185;50.978;13.720;2024-02-15T21:59:41;98349.47;;;10.11;79.67
34979;BME280;21185;50.978;13.720;2024-02-15T22:04:43;98338.75;;;10.05;79.81
34979;BME280;21185;50.978;13.720;2024-02-15T22:09:46;98328.88;;;10.01;79.43
34979;BME280;21185;50.978;13.720;2024-02-15T22:14:49;98319.94;;;9.95;79.44
34979;BME280;21185;50.978;13.720;2024-02-15T22:19:54;98314.56;;;9.89;79.25
34979;BME280;21185;50.978;13.720;2024-02-15T22:24:56;98306.44;;;9.84;79.17
34979;BME280;21185;50.978;13.720;2024-02-15T22:29:59;98322.47;;;9.79;79.08
34979;BME280;21185;50.978;13.720;2024-02-15T22:35:01;98325.22;;;9.78;78.95
34979;BME280;21185;50.978;13.720;2024-02-15T22:40:04;98331.69;;;9.73;79.11
34979;BME280;21185;50.978;13.720;2024-02-15T22:45:06;98336.84;;;9.73;79.25
34979;BME280;21185;50.978;13.720;2024-02-15T22:50:09;98335.22;;;9.72;79.38
34979;BME280;21185;50.978;13.720;2024-02-15T22:55:12;98320.81;;;9.70;79.52
34979;BME280;21185;50.978;13.720;2024-02-15T23:00:40;98323.56;;;9.68;79.48
34979;BME280;21185;50.978;13.720;2024-02-15T23:06:11;98322.25;;;9.64;79.29
34979;BME280;21185;50.978;13.720;2024-02-15T23:11:16;98330.63;;;9.58;79.30
34979;BME280;21185;50.978;13.720;2024-02-15T23:30:22;98328.31;;;9.47;79.33
34979;BME280;21185;50.978;13.720;2024-02-15T23:42:37;98319.03;;;9.36;79.18
34979;BME280;21185;50.978;13.720;2024-02-15T23:48:23;98308.00;;;9.34;79.20
34979;BME280;21185;50.978;13.720;2024-02-15T23:59:18;98313.94;;;9.27;79.10
